createdAt,value
2022-12-05T00:01:23.916Z,30.40
2022-12-05T00:03:52.316Z,31.00
2022-12-05T00:06:21.294Z,37.42
2022-12-05T00:08:48.906Z,33.50
2022-12-05T00:11:20.134Z,30.38
2022-12-05T00:13:47.770Z,36.55
2022-12-05T00:16:17.586Z,33.85
2022-12-05T00:18:44.431Z,35.47
2022-12-05T00:21:18.505Z,37.55
2022-12-05T00:23:48.421Z,39.88
2022-12-05T00:26:15.717Z,31.55
2022-12-05T00:31:26.064Z,35.92
2022-12-05T00:33:54.123Z,28.30
2022-12-05T00:36:26.992Z,24.10
2022-12-05T00:38:54.750Z,36.78
2022-12-05T00:41:24.559Z,33.45
2022-12-05T00:43:52.570Z,35.03
2022-12-05T00:46:23.393Z,34.03
2022-12-05T00:48:56.790Z,30.85
2022-12-05T00:51:28.454Z,29.90
2022-12-05T00:54:00.995Z,36.35
2022-12-05T00:56:30.557Z,31.17
2022-12-05T00:58:59.745Z,40.30
2022-12-05T01:01:28.386Z,26.35
2022-12-05T01:03:57.355Z,25.35
2022-12-05T01:06:26.238Z,19.48
2022-12-05T01:08:54.693Z,15.75
2022-12-05T01:11:21.847Z,27.02
2022-12-05T01:13:48.961Z,20.05
2022-12-05T01:16:29.479Z,17.67
2022-12-05T01:18:58.185Z,18.00
2022-12-05T01:21:25.694Z,18.83
2022-12-05T01:23:52.585Z,22.73
2022-12-05T01:26:21.334Z,21.85
2022-12-05T01:28:48.677Z,23.10
2022-12-05T01:31:26.398Z,27.85
2022-12-05T01:33:55.195Z,24.98
2022-12-05T01:36:23.589Z,24.48
2022-12-05T01:38:51.055Z,32.08
2022-12-05T01:41:21.361Z,23.38
2022-12-05T01:44:05.175Z,21.95
2022-12-05T01:46:43.597Z,29.35
2022-12-05T01:49:17.326Z,16.80
2022-12-05T01:51:47.852Z,24.05
2022-12-05T01:54:18.388Z,18.08
2022-12-05T01:56:49.695Z,20.17
2022-12-05T01:59:18.384Z,27.13
2022-12-05T02:01:45.198Z,24.08
2022-12-05T02:04:12.068Z,19.25
2022-12-05T02:06:38.854Z,20.92
2022-12-05T02:09:05.934Z,19.17
2022-12-05T02:11:46.840Z,21.63
2022-12-05T02:14:38.580Z,17.23
2022-12-05T02:17:22.131Z,16.60
2022-12-05T02:20:25.802Z,18.75
2022-12-05T02:23:10.887Z,13.90
2022-12-05T02:26:02.192Z,16.38
2022-12-05T02:28:37.678Z,17.95
2022-12-05T02:31:06.996Z,20.90
2022-12-05T02:33:45.685Z,16.27
2022-12-05T02:36:22.124Z,14.93
2022-12-05T02:39:00.929Z,16.85
2022-12-05T02:41:36.429Z,14.75
2022-12-05T02:44:09.189Z,18.38
2022-12-05T02:46:38.749Z,16.10
2022-12-05T02:49:14.514Z,19.80
2022-12-05T02:51:58.115Z,19.95
2022-12-05T02:54:30.406Z,18.63
2022-12-05T02:56:58.669Z,19.67
2022-12-05T02:59:25.340Z,17.90
2022-12-05T03:01:53.276Z,17.08
2022-12-05T03:04:23.547Z,16.88
2022-12-05T03:06:58.828Z,17.77
2022-12-05T03:09:32.706Z,17.33
2022-12-05T03:12:10.860Z,17.42
2022-12-05T03:14:46.889Z,17.55
2022-12-05T03:17:20.056Z,15.27
2022-12-05T03:20:09.557Z,19.05
2022-12-05T03:22:41.924Z,16.58
2022-12-05T03:25:10.426Z,14.57
2022-12-05T03:28:21.477Z,16.13
2022-12-05T03:30:49.543Z,19.90
2022-12-05T03:33:26.432Z,17.70
2022-12-05T03:35:55.958Z,16.70
2022-12-05T03:38:25.675Z,18.65
2022-12-05T03:41:11.431Z,17.73
2022-12-05T03:43:57.462Z,18.50
2022-12-05T03:46:32.017Z,17.20
2022-12-05T03:49:21.942Z,18.60
2022-12-05T03:52:15.635Z,18.90
2022-12-05T03:54:53.596Z,19.10
2022-12-05T03:57:27.037Z,22.08
2022-12-05T03:59:59.596Z,18.63
2022-12-05T04:02:34.745Z,17.38
2022-12-05T04:05:10.063Z,23.50
2022-12-05T04:07:39.754Z,23.83
2022-12-05T04:10:13.617Z,22.73
2022-12-05T04:12:43.793Z,28.25
2022-12-05T04:15:25.671Z,26.60
2022-12-05T04:17:59.990Z,26.58
2022-12-05T04:20:33.425Z,25.02
2022-12-05T04:23:01.477Z,25.75
2022-12-05T04:25:38.470Z,25.30
2022-12-05T04:28:26.157Z,22.20
2022-12-05T04:31:01.807Z,24.60
2022-12-05T04:33:37.497Z,21.92
2022-12-05T04:36:13.858Z,25.45
2022-12-05T04:38:55.115Z,24.98
2022-12-05T04:41:34.169Z,31.88
2022-12-05T04:44:07.099Z,26.40
2022-12-05T04:46:42.308Z,25.95
2022-12-05T04:49:14.339Z,25.40
2022-12-05T04:51:44.497Z,26.27
2022-12-05T04:54:19.819Z,27.27
2022-12-05T04:56:50.352Z,26.80
2022-12-05T04:59:17.037Z,22.30
2022-12-05T05:01:54.729Z,22.38
2022-12-05T05:04:29.416Z,30.08
2022-12-05T05:06:56.233Z,22.73
2022-12-05T05:11:54.991Z,24.95
2022-12-05T05:14:21.620Z,21.00
2022-12-05T05:16:48.225Z,21.98
2022-12-05T05:19:14.876Z,19.80
2022-12-05T05:21:42.876Z,20.58
2022-12-05T05:24:11.647Z,20.90
2022-12-05T05:26:42.043Z,19.45
2022-12-05T05:29:09.174Z,20.05
2022-12-05T05:31:37.245Z,18.67
2022-12-05T05:34:09.423Z,17.90
2022-12-05T05:36:38.361Z,18.57
2022-12-05T05:39:06.040Z,19.80
2022-12-05T05:41:36.496Z,19.55
2022-12-05T05:44:04.249Z,22.42
2022-12-05T05:46:33.267Z,22.77
2022-12-05T05:49:03.749Z,22.35
2022-12-05T05:51:30.400Z,23.52
2022-12-05T05:53:58.279Z,16.27
2022-12-05T05:56:28.590Z,19.67
2022-12-05T05:59:03.703Z,20.02
2022-12-05T06:01:30.689Z,21.27
2022-12-05T06:03:58.872Z,20.35
2022-12-05T06:06:26.814Z,18.20
2022-12-05T06:08:53.699Z,20.95
2022-12-05T06:11:26.306Z,21.38
2022-12-05T06:13:56.538Z,24.27
2022-12-05T06:16:24.912Z,17.98
2022-12-05T06:18:52.162Z,35.65
2022-12-05T06:21:19.550Z,23.30
2022-12-05T06:23:46.197Z,19.25
2022-12-05T06:26:15.049Z,23.80
2022-12-05T06:28:42.263Z,34.80
2022-12-05T06:31:14.637Z,21.40
2022-12-05T06:33:41.821Z,21.55
2022-12-05T06:36:11.053Z,22.10
2022-12-05T06:38:41.729Z,26.48
2022-12-05T06:41:17.587Z,23.02
2022-12-05T06:43:44.231Z,21.73
2022-12-05T06:46:14.152Z,23.40
2022-12-05T06:48:43.375Z,19.77
2022-12-05T06:51:15.186Z,19.58
2022-12-05T06:53:44.127Z,19.90
2022-12-05T06:56:14.853Z,18.65
2022-12-05T06:58:47.976Z,20.80
2022-12-05T07:01:17.058Z,26.13
2022-12-05T07:03:43.762Z,20.70
2022-12-05T07:06:10.625Z,21.90
2022-12-05T07:08:37.196Z,26.75
2022-12-05T07:11:04.067Z,19.85
2022-12-05T07:13:30.938Z,27.10
2022-12-05T07:15:57.616Z,20.50
2022-12-05T07:18:24.734Z,22.65
2022-12-05T07:21:11.719Z,18.92
2022-12-05T07:23:39.879Z,21.38
2022-12-05T07:26:11.750Z,25.42
2022-12-05T07:28:39.735Z,24.10
2022-12-05T07:31:10.610Z,18.95
2022-12-05T07:33:37.761Z,41.35
2022-12-05T07:36:10.930Z,27.25
2022-12-05T07:38:37.810Z,26.23
2022-12-05T07:41:12.995Z,32.28
2022-12-05T07:43:40.950Z,32.33
2022-12-05T07:46:09.178Z,28.42
2022-12-05T07:48:35.912Z,29.88
2022-12-05T07:51:05.002Z,26.60
2022-12-05T07:53:32.679Z,29.20
2022-12-05T07:56:00.836Z,30.85
2022-12-05T07:58:31.360Z,30.73
2022-12-05T08:01:05.437Z,29.77
2022-12-05T08:03:32.009Z,26.45
2022-12-05T08:06:03.056Z,33.78
2022-12-05T08:08:29.691Z,31.15
2022-12-05T08:10:56.605Z,30.33
2022-12-05T08:13:23.194Z,28.40
2022-12-05T08:15:50.727Z,25.02
2022-12-05T08:18:17.316Z,30.23
2022-12-05T08:20:46.921Z,26.80
2022-12-05T08:23:13.484Z,22.00
2022-12-05T08:25:40.716Z,22.42
2022-12-05T08:28:07.368Z,26.90
2022-12-05T08:30:34.029Z,29.45
2022-12-05T08:33:00.687Z,24.30
2022-12-05T08:35:27.240Z,27.23
2022-12-05T08:37:53.895Z,26.27
2022-12-05T08:40:21.584Z,27.05
2022-12-05T08:42:49.693Z,27.02
2022-12-05T08:45:16.360Z,25.73
2022-12-05T08:47:42.922Z,27.38
2022-12-05T08:50:13.010Z,30.25
2022-12-05T08:52:42.461Z,31.25
2022-12-05T08:55:09.478Z,30.55
2022-12-05T08:57:39.437Z,26.90
2022-12-05T09:00:06.769Z,30.63
2022-12-05T09:02:33.352Z,28.55
2022-12-05T09:05:13.670Z,24.35
2022-12-05T09:07:46.738Z,26.65
2022-12-05T09:10:13.393Z,22.75
2022-12-05T09:12:40.721Z,22.85
2022-12-05T09:15:09.382Z,23.17
2022-12-05T09:20:08.698Z,24.60
2022-12-05T09:22:35.384Z,24.30
2022-12-05T09:25:06.949Z,24.23
2022-12-05T09:27:33.529Z,26.30
2022-12-05T09:30:00.195Z,24.20
2022-12-05T09:32:27.049Z,33.28
2022-12-05T09:34:53.753Z,30.33
2022-12-05T09:37:37.979Z,30.30
2022-12-05T09:40:06.499Z,32.15
2022-12-05T09:42:54.069Z,29.15
2022-12-05T09:45:25.835Z,29.20
2022-12-05T09:48:11.407Z,30.35
2022-12-05T09:50:52.564Z,32.92
2022-12-05T09:53:32.726Z,28.38
2022-12-05T09:56:06.717Z,22.48
2022-12-05T09:58:51.256Z,30.50
2022-12-05T10:01:33.811Z,28.92
2022-12-05T10:04:15.438Z,28.50
2022-12-05T10:07:17.130Z,31.63
2022-12-05T10:10:09.781Z,24.38
2022-12-05T10:13:11.798Z,35.13
2022-12-05T10:15:45.940Z,27.88
2022-12-05T10:18:56.527Z,27.15
2022-12-05T10:21:29.363Z,23.98
2022-12-05T10:24:14.363Z,24.30
2022-12-05T10:26:54.954Z,23.30
2022-12-05T10:29:30.017Z,25.10
2022-12-05T10:32:07.617Z,26.40
2022-12-05T10:34:39.684Z,25.05
2022-12-05T10:37:16.708Z,25.20
2022-12-05T10:42:29.372Z,29.58
2022-12-05T10:45:01.191Z,25.77
2022-12-05T10:47:28.768Z,29.35
2022-12-05T10:49:58.372Z,22.92
2022-12-05T10:52:25.341Z,24.88
2022-12-05T10:54:57.748Z,22.23
2022-12-05T10:57:31.962Z,22.45
2022-12-05T11:00:18.803Z,21.50
2022-12-05T11:02:49.363Z,23.90
2022-12-05T11:05:17.891Z,27.38
2022-12-05T11:07:44.618Z,26.85
2022-12-05T11:10:26.925Z,22.67
2022-12-05T11:12:56.692Z,24.27
2022-12-05T11:15:26.742Z,26.25
2022-12-05T11:17:55.766Z,24.42
2022-12-05T11:20:25.829Z,26.88
2022-12-05T11:22:54.957Z,24.25
2022-12-05T11:25:33.566Z,24.35
2022-12-05T11:28:16.746Z,25.63
2022-12-05T11:31:21.167Z,24.65
2022-12-05T11:34:09.778Z,21.23
2022-12-05T11:36:43.880Z,26.23
2022-12-05T11:39:12.758Z,23.83
2022-12-05T11:41:45.017Z,24.35
2022-12-05T11:44:17.861Z,23.17
2022-12-05T11:47:07.611Z,22.25
2022-12-05T11:49:53.060Z,25.42
2022-12-05T11:52:22.476Z,24.25
2022-12-05T11:55:05.443Z,24.13
2022-12-05T11:57:38.274Z,25.58
2022-12-05T12:00:07.772Z,24.85
2022-12-05T12:03:05.492Z,24.25
2022-12-05T12:05:32.205Z,21.98
2022-12-05T12:08:30.937Z,22.63
2022-12-05T12:11:31.549Z,22.55
2022-12-05T12:14:39.519Z,20.88
2022-12-05T12:17:22.898Z,22.98
2022-12-05T12:20:16.643Z,21.92
2022-12-05T12:23:09.902Z,21.38
2022-12-05T12:26:05.786Z,22.08
2022-12-05T12:28:53.927Z,25.42
2022-12-05T12:31:58.476Z,27.73
2022-12-05T12:34:57.252Z,25.33
2022-12-05T12:37:33.145Z,27.33
2022-12-05T12:40:25.408Z,24.92
2022-12-05T12:43:07.621Z,24.02
2022-12-05T12:46:15.971Z,28.15
2022-12-05T12:49:03.671Z,24.45
2022-12-05T12:51:32.096Z,23.38
2022-12-05T12:54:40.384Z,24.35
2022-12-05T12:57:44.333Z,25.95
2022-12-05T13:00:41.446Z,26.85
2022-12-05T13:06:38.058Z,23.27
2022-12-05T13:09:51.678Z,26.77
2022-12-05T13:12:24.725Z,21.90
2022-12-05T13:14:59.068Z,20.17
2022-12-05T13:17:44.718Z,27.85
2022-12-05T13:20:20.913Z,24.52
2022-12-05T13:22:59.185Z,26.13
2022-12-05T13:25:34.349Z,25.35
2022-12-05T13:28:07.904Z,26.80
2022-12-05T13:30:35.349Z,25.33
2022-12-05T13:33:12.312Z,25.85
2022-12-05T13:35:39.250Z,26.13
2022-12-05T13:38:05.987Z,26.55
2022-12-05T13:40:35.530Z,23.70
2022-12-05T13:43:04.211Z,21.85
2022-12-05T13:45:31.292Z,25.23
2022-12-05T13:48:00.681Z,30.25
2022-12-05T13:50:33.210Z,32.28
2022-12-05T13:53:16.614Z,35.45
2022-12-05T13:56:00.982Z,33.15
2022-12-05T13:58:41.066Z,34.92
2022-12-05T14:01:25.920Z,32.78
2022-12-05T14:03:56.542Z,36.33
2022-12-05T14:06:36.936Z,37.53
2022-12-05T14:09:27.918Z,37.35
2022-12-05T14:12:12.970Z,35.67
2022-12-05T14:14:58.965Z,36.45
2022-12-05T14:17:31.621Z,34.90
2022-12-05T14:20:11.952Z,37.30
2022-12-05T14:22:49.340Z,35.22
2022-12-05T14:25:21.606Z,38.08
2022-12-05T14:28:49.688Z,36.13
2022-12-05T14:31:22.057Z,37.25
2022-12-05T14:34:26.151Z,35.63
2022-12-05T14:37:02.517Z,40.65
2022-12-05T14:39:46.127Z,41.83
2022-12-05T14:42:47.839Z,41.22
2022-12-05T14:45:27.999Z,36.00
2022-12-05T14:47:58.118Z,35.97
2022-12-05T14:50:41.769Z,37.17
2022-12-05T14:53:42.749Z,34.05
2022-12-05T14:56:14.995Z,38.10
2022-12-05T14:58:44.702Z,39.92
2022-12-05T15:01:21.100Z,34.55
2022-12-05T15:04:21.395Z,29.88
2022-12-05T15:07:04.633Z,34.72
2022-12-05T15:09:49.982Z,35.42
2022-12-05T15:12:54.926Z,32.30
2022-12-05T15:15:30.897Z,33.75
2022-12-05T15:18:19.019Z,38.90
2022-12-05T15:21:23.505Z,36.78
2022-12-05T15:24:05.537Z,32.45
2022-12-05T15:26:49.523Z,30.85
2022-12-05T15:29:26.036Z,33.40
2022-12-05T15:32:06.274Z,37.47
2022-12-05T15:35:01.240Z,35.50
2022-12-05T15:40:20.482Z,39.20
2022-12-05T15:42:50.053Z,38.42
2022-12-05T15:45:25.174Z,39.70
2022-12-05T15:48:13.486Z,35.53
2022-12-05T15:50:51.218Z,34.75
2022-12-05T15:53:23.572Z,36.55
2022-12-05T15:56:22.279Z,37.53
2022-12-05T15:59:20.103Z,42.60
2022-12-05T16:01:52.349Z,41.95
2022-12-05T16:04:30.963Z,46.10
2022-12-05T16:07:01.033Z,46.60
2022-12-05T16:09:33.141Z,50.67
2022-12-05T16:12:06.051Z,49.22
2022-12-05T16:17:29.038Z,56.10
2022-12-05T16:20:11.272Z,58.70
2022-12-05T16:22:45.330Z,64.97
2022-12-05T16:25:19.164Z,64.53
2022-12-05T16:28:01.929Z,68.80
2022-12-05T16:30:30.531Z,71.97
2022-12-05T16:33:06.897Z,67.88
2022-12-05T16:35:38.881Z,76.40
2022-12-05T16:38:15.417Z,73.82
2022-12-05T16:40:55.186Z,74.70
2022-12-05T16:43:27.326Z,72.00
2022-12-05T16:45:56.127Z,71.15
2022-12-05T16:48:31.174Z,81.85
2022-12-05T16:51:22.248Z,65.80
2022-12-05T16:53:51.645Z,68.97
2022-12-05T16:56:25.858Z,65.82
2022-12-05T16:58:55.927Z,67.43
2022-12-05T17:01:25.835Z,64.90
2022-12-05T17:03:56.433Z,69.75
2022-12-05T17:06:25.419Z,56.33
2022-12-05T17:08:55.379Z,65.93
2022-12-05T17:11:35.406Z,47.95
2022-12-05T17:14:02.911Z,45.15
2022-12-05T17:16:29.580Z,47.15
2022-12-05T17:18:56.241Z,50.78
2022-12-05T17:21:31.046Z,53.25
2022-12-05T17:24:01.152Z,52.35
2022-12-05T17:26:33.673Z,49.67
2022-12-05T17:29:00.287Z,52.03
2022-12-05T17:31:27.054Z,55.95
2022-12-05T17:33:54.542Z,50.95
2022-12-05T17:36:21.260Z,57.63
2022-12-05T17:38:48.806Z,50.90
2022-12-05T17:41:20.541Z,48.15
2022-12-05T17:43:51.073Z,49.00
2022-12-05T17:46:24.272Z,47.47
2022-12-05T17:48:51.755Z,49.40
2022-12-05T17:51:19.537Z,48.83
2022-12-05T17:53:46.162Z,39.50
2022-12-05T17:56:13.489Z,42.33
2022-12-05T17:58:40.665Z,42.17
2022-12-05T18:01:07.550Z,34.70
2022-12-05T18:03:34.295Z,41.10
2022-12-05T18:06:02.115Z,33.03
2022-12-05T18:08:28.698Z,32.75
2022-12-05T18:10:56.199Z,32.65
2022-12-05T18:13:22.876Z,36.67
2022-12-05T18:15:55.501Z,33.50
2022-12-05T18:18:22.134Z,33.15
2022-12-05T18:20:50.115Z,32.92
2022-12-05T18:23:16.719Z,33.40
2022-12-05T18:25:43.329Z,33.35
2022-12-05T18:28:09.966Z,37.28
2022-12-05T18:30:36.561Z,39.58
2022-12-05T18:33:03.225Z,42.70
2022-12-05T18:35:29.849Z,41.45
2022-12-05T18:37:59.266Z,33.63
2022-12-05T18:43:03.010Z,34.17
2022-12-05T18:45:32.603Z,28.95
2022-12-05T18:48:09.826Z,28.27
2022-12-05T18:50:48.485Z,29.77
2022-12-05T18:53:15.109Z,29.55
2022-12-05T18:58:30.644Z,30.25
2022-12-05T19:01:08.432Z,29.30
2022-12-05T19:03:36.257Z,29.10
2022-12-05T19:06:17.987Z,33.70
2022-12-05T19:08:45.365Z,29.30
2022-12-05T19:11:15.136Z,27.92
2022-12-05T19:13:41.832Z,30.20
2022-12-05T19:16:11.576Z,27.02
2022-12-05T19:18:38.228Z,27.00
2022-12-05T19:21:05.238Z,29.25
2022-12-05T19:23:34.114Z,32.17
2022-12-05T19:26:09.203Z,27.73
2022-12-05T19:28:37.378Z,28.50
2022-12-05T19:31:09.800Z,28.10
2022-12-05T19:33:39.016Z,27.23
2022-12-05T19:36:13.726Z,27.08
2022-12-05T19:38:41.884Z,24.98
2022-12-05T19:41:11.646Z,25.85
2022-12-05T19:43:39.134Z,27.30
2022-12-05T19:46:12.020Z,29.42
2022-12-05T19:48:40.207Z,26.48
2022-12-05T19:51:07.234Z,28.90
2022-12-05T19:53:37.458Z,29.50
2022-12-05T19:56:12.405Z,25.08
2022-12-05T19:58:43.221Z,25.73
2022-12-05T20:01:17.866Z,23.27
2022-12-05T20:03:49.058Z,24.90
2022-12-05T20:06:27.216Z,23.92
2022-12-05T20:08:53.979Z,25.33
2022-12-05T20:11:24.410Z,24.48
2022-12-05T20:14:00.440Z,28.08
2022-12-05T20:16:28.573Z,21.88
2022-12-05T20:18:57.419Z,23.50
2022-12-05T20:21:25.176Z,21.95
2022-12-05T20:23:54.259Z,26.15
2022-12-05T20:26:23.398Z,30.15
2022-12-05T20:28:50.787Z,30.15
2022-12-05T20:31:22.609Z,29.23
2022-12-05T20:33:51.090Z,33.35
2022-12-05T20:36:19.975Z,32.35
2022-12-05T20:38:47.568Z,33.38
2022-12-05T20:41:21.548Z,33.08
2022-12-05T20:43:52.449Z,37.70
2022-12-05T20:46:20.660Z,29.45
2022-12-05T20:48:48.064Z,33.65
2022-12-05T20:51:23.435Z,29.85
2022-12-05T20:53:50.104Z,28.90
2022-12-05T20:56:24.535Z,30.45
2022-12-05T20:58:53.313Z,27.85
2022-12-05T21:01:21.464Z,29.08
2022-12-05T21:03:50.062Z,25.98
2022-12-05T21:06:23.785Z,23.85
2022-12-05T21:08:51.825Z,22.98
2022-12-05T21:11:19.266Z,24.10
2022-12-05T21:13:46.239Z,23.35
2022-12-05T21:16:16.789Z,22.73
2022-12-05T21:18:44.045Z,24.65
2022-12-05T21:21:19.448Z,22.58
2022-12-05T21:23:47.864Z,22.17
2022-12-05T21:26:18.301Z,22.48
2022-12-05T21:28:46.270Z,24.48
2022-12-05T21:31:15.649Z,19.75
2022-12-05T21:33:49.634Z,25.17
2022-12-05T21:36:17.511Z,23.25
2022-12-05T21:38:53.981Z,23.63
2022-12-05T21:41:25.103Z,23.05
2022-12-05T21:43:54.962Z,22.83
2022-12-05T21:46:25.421Z,23.27
2022-12-05T21:48:52.739Z,25.45
2022-12-05T21:51:19.771Z,25.38
2022-12-05T21:53:46.392Z,25.35
2022-12-05T21:56:17.433Z,23.60
2022-12-05T21:58:47.369Z,24.95
2022-12-05T22:01:32.151Z,26.15
2022-12-05T22:03:59.599Z,27.83
2022-12-05T22:06:27.234Z,25.08
2022-12-05T22:08:54.690Z,23.45
2022-12-05T22:11:23.836Z,24.65
2022-12-05T22:13:51.094Z,22.88
2022-12-05T22:16:18.680Z,26.02
2022-12-05T22:18:49.969Z,26.27
2022-12-05T22:21:23.488Z,25.27
2022-12-05T22:23:51.312Z,30.60
2022-12-05T22:26:23.206Z,26.88
2022-12-05T22:28:51.182Z,31.08
2022-12-05T22:31:18.252Z,28.75
2022-12-05T22:33:46.058Z,31.52
2022-12-05T22:36:15.076Z,35.75
2022-12-05T22:38:43.946Z,32.88
2022-12-05T22:41:13.146Z,34.80
2022-12-05T22:43:40.392Z,34.90
2022-12-05T22:46:13.285Z,37.33
2022-12-05T22:48:40.430Z,32.95
2022-12-05T22:51:08.151Z,36.63
2022-12-05T22:53:35.568Z,34.72
2022-12-05T22:56:04.648Z,34.42
2022-12-05T22:58:31.613Z,37.38
2022-12-05T23:00:58.339Z,35.80
2022-12-05T23:03:24.992Z,30.80
2022-12-05T23:05:56.072Z,31.05
2022-12-05T23:08:22.703Z,33.70
2022-12-05T23:10:49.345Z,34.35
2022-12-05T23:13:17.409Z,30.70
2022-12-05T23:15:44.073Z,33.22
2022-12-05T23:18:10.641Z,33.67
2022-12-05T23:20:37.523Z,34.15
2022-12-05T23:23:04.163Z,29.95
2022-12-05T23:25:32.439Z,33.50
2022-12-05T23:27:59.015Z,33.00
2022-12-05T23:30:25.936Z,32.35
2022-12-05T23:32:52.536Z,25.33
2022-12-05T23:35:19.124Z,30.15
2022-12-05T23:37:45.926Z,27.30
2022-12-05T23:40:12.654Z,28.75
2022-12-05T23:42:39.258Z,26.90
2022-12-05T23:45:06.378Z,24.13
2022-12-05T23:47:33.113Z,23.15
2022-12-05T23:49:59.990Z,24.58
2022-12-05T23:52:36.800Z,24.25
2022-12-05T23:55:04.366Z,22.35
2022-12-05T23:57:31.114Z,22.30
2022-12-05T23:59:58.092Z,23.23
